sensor_id;sensor_type;location;lat;lon;timestamp;pressure;altitude;pressure_sealevel;temperature;humidity
82375;BME280;72005;50.496;15.798;2023-10-13T00:02:11;95735.47;;;14.26;88.02
82375;BME280;72005;50.496;15.798;2023-10-13T00:04:39;95737.06;;;14.27;88.00
82375;BME280;72005;50.496;15.798;2023-10-13T00:07:05;95743.41;;;14.26;87.94
82375;BME280;72005;50.496;15.798;2023-10-13T00:09:34;95741.28;;;14.28;88.06
82375;BME280;72005;50.496;15.798;2023-10-13T00:12:08;95738.13;;;14.26;88.26
82375;BME280;72005;50.496;15.798;2023-10-13T00:14:39;95739.97;;;14.26;88.17
82375;BME280;72005;50.496;15.798;2023-10-13T00:17:07;95744.47;;;14.25;88.20
82375;BME280;72005;50.496;15.798;2023-10-13T00:19:35;95742.34;;;14.27;88.21
82375;BME280;72005;50.496;15.798;2023-10-13T00:22:19;95739.72;;;14.27;88.03
82375;BME280;72005;50.496;15.798;2023-10-13T00:24:48;95740.72;;;14.31;88.04
82375;BME280;72005;50.496;15.798;2023-10-13T00:27:18;95746.00;;;14.31;88.10
82375;BME280;72005;50.496;15.798;2023-10-13T00:32:45;95737.00;;;14.32;88.03
82375;BME280;72005;50.496;15.798;2023-10-13T00:35:13;95729.59;;;14.34;88.08
82375;BME280;72005;50.496;15.798;2023-10-13T00:37:40;95719.03;;;14.34;88.01
82375;BME280;72005;50.496;15.798;2023-10-13T00:40:12;95731.19;;;14.35;88.20
82375;BME280;72005;50.496;15.798;2023-10-13T00:42:59;95732.25;;;14.34;88.15
82375;BME280;72005;50.496;15.798;2023-10-13T00:45:44;95732.00;;;14.36;88.06
82375;BME280;72005;50.496;15.798;2023-10-13T00:48:14;95730.38;;;14.35;88.04
82375;BME280;72005;50.496;15.798;2023-10-13T00:50:42;95724.31;;;14.34;87.90
82375;BME280;72005;50.496;15.798;2023-10-13T00:53:11;95728.31;;;14.32;87.96
82375;BME280;72005;50.496;15.798;2023-10-13T00:55:38;95733.06;;;14.30;88.21
82375;BME280;72005;50.496;15.798;2023-10-13T00:58:08;95734.69;;;14.26;88.25
82375;BME280;72005;50.496;15.798;2023-10-13T01:00:38;95741.81;;;14.25;88.12
82375;BME280;72005;50.496;15.798;2023-10-13T01:03:12;95732.81;;;14.26;88.13
82375;BME280;72005;50.496;15.798;2023-10-13T01:05:39;95735.47;;;14.26;88.09
82375;BME280;72005;50.496;15.798;2023-10-13T01:08:06;95730.19;;;14.26;88.15
82375;BME280;72005;50.496;15.798;2023-10-13T01:10:36;95729.13;;;14.27;88.21
82375;BME280;72005;50.496;15.798;2023-10-13T01:13:03;95720.69;;;14.25;88.30
82375;BME280;72005;50.496;15.798;2023-10-13T01:15:30;95722.81;;;14.23;88.51
82375;BME280;72005;50.496;15.798;2023-10-13T01:18:11;95726.00;;;14.20;88.25
82375;BME280;72005;50.496;15.798;2023-10-13T01:20:39;95727.53;;;14.26;88.35
82375;BME280;72005;50.496;15.798;2023-10-13T01:23:18;95718.56;;;14.27;88.26
82375;BME280;72005;50.496;15.798;2023-10-13T01:25:44;95720.13;;;14.28;88.12
82375;BME280;72005;50.496;15.798;2023-10-13T01:28:11;95727.28;;;14.28;88.36
82375;BME280;72005;50.496;15.798;2023-10-13T01:30:42;95720.13;;;14.28;88.28
82375;BME280;72005;50.496;15.798;2023-10-13T01:33:08;95718.81;;;14.31;88.17
82375;BME280;72005;50.496;15.798;2023-10-13T01:35:37;95727.25;;;14.33;88.33
82375;BME280;72005;50.496;15.798;2023-10-13T01:38:13;95720.09;;;14.33;88.27
82375;BME280;72005;50.496;15.798;2023-10-13T01:40:39;95718.81;;;14.31;88.20
82375;BME280;72005;50.496;15.798;2023-10-13T01:43:05;95719.59;;;14.31;88.08
82375;BME280;72005;50.496;15.798;2023-10-13T01:45:37;95714.31;;;14.31;88.19
82375;BME280;72005;50.496;15.798;2023-10-13T01:48:15;95712.75;;;14.30;88.00
82375;BME280;72005;50.496;15.798;2023-10-13T01:50:45;95725.94;;;14.30;88.01
82375;BME280;72005;50.496;15.798;2023-10-13T01:53:14;95719.59;;;14.31;88.09
82375;BME280;72005;50.496;15.798;2023-10-13T01:55:43;95733.31;;;14.33;88.04
82375;BME280;72005;50.496;15.798;2023-10-13T01:58:13;95739.41;;;14.34;87.98
82375;BME280;72005;50.496;15.798;2023-10-13T02:00:44;95734.63;;;14.36;87.92
82375;BME280;72005;50.496;15.798;2023-10-13T02:03:12;95741.19;;;14.38;88.07
82375;BME280;72005;50.496;15.798;2023-10-13T02:08:19;95730.63;;;14.38;87.97
82375;BME280;72005;50.496;15.798;2023-10-13T02:10:51;95727.97;;;14.38;87.90
82375;BME280;72005;50.496;15.798;2023-10-13T02:13:19;95724.56;;;14.38;87.87
82375;BME280;72005;50.496;15.798;2023-10-13T02:15:46;95733.56;;;14.37;87.96
82375;BME280;72005;50.496;15.798;2023-10-13T02:18:15;95732.78;;;14.36;87.84
82375;BME280;72005;50.496;15.798;2023-10-13T02:20:49;95746.25;;;14.35;87.91
82375;BME280;72005;50.496;15.798;2023-10-13T02:23:24;95743.91;;;14.33;87.99
82375;BME280;72005;50.496;15.798;2023-10-13T02:25:50;95752.88;;;14.32;88.00
82375;BME280;72005;50.496;15.798;2023-10-13T02:28:27;95744.16;;;14.32;88.15
82375;BME280;72005;50.496;15.798;2023-10-13T02:30:56;95741.50;;;14.32;88.02
82375;BME280;72005;50.496;15.798;2023-10-13T02:33:23;95750.75;;;14.34;88.02
82375;BME280;72005;50.496;15.798;2023-10-13T02:36:02;95752.31;;;14.35;88.10
82375;BME280;72005;50.496;15.798;2023-10-13T02:38:32;95751.75;;;14.38;88.09
82375;BME280;72005;50.496;15.798;2023-10-13T02:41:10;95753.91;;;14.36;88.05
82375;BME280;72005;50.496;15.798;2023-10-13T02:43:37;95752.84;;;14.37;87.94
82375;BME280;72005;50.496;15.798;2023-10-13T02:46:04;95755.47;;;14.37;87.99
82375;BME280;72005;50.496;15.798;2023-10-13T02:48:30;95752.84;;;14.37;87.58
82375;BME280;72005;50.496;15.798;2023-10-13T02:51:05;95758.91;;;14.38;88.12
82375;BME280;72005;50.496;15.798;2023-10-13T02:53:42;95759.69;;;14.38;87.85
82375;BME280;72005;50.496;15.798;2023-10-13T02:56:08;95763.94;;;14.39;87.79
82375;BME280;72005;50.496;15.798;2023-10-13T02:58:34;95763.94;;;14.39;87.71
82375;BME280;72005;50.496;15.798;2023-10-13T03:01:09;95767.34;;;14.40;87.89
82375;BME280;72005;50.496;15.798;2023-10-13T03:03:48;95766.06;;;14.37;87.87
82375;BME280;72005;50.496;15.798;2023-10-13T03:06:16;95759.97;;;14.37;87.92
82375;BME280;72005;50.496;15.798;2023-10-13T03:08:43;95757.88;;;14.39;87.93
82375;BME280;72005;50.496;15.798;2023-10-13T03:11:10;95757.56;;;14.40;87.88
82375;BME280;72005;50.496;15.798;2023-10-13T03:13:36;95758.34;;;14.41;88.11
82375;BME280;72005;50.496;15.798;2023-10-13T03:16:12;95762.84;;;14.40;87.97
82375;BME280;72005;50.496;15.798;2023-10-13T03:18:38;95759.16;;;14.41;87.84
82375;BME280;72005;50.496;15.798;2023-10-13T03:21:04;95760.22;;;14.40;87.73
82375;BME280;72005;50.496;15.798;2023-10-13T03:23:30;95762.06;;;14.40;87.83
82375;BME280;72005;50.496;15.798;2023-10-13T03:26:10;95763.16;;;14.39;87.96
82375;BME280;72005;50.496;15.798;2023-10-13T03:28:36;95758.66;;;14.39;87.80
82375;BME280;72005;50.496;15.798;2023-10-13T03:31:03;95758.13;;;14.37;87.83
82375;BME280;72005;50.496;15.798;2023-10-13T03:33:29;95760.75;;;14.37;87.96
82375;BME280;72005;50.496;15.798;2023-10-13T03:35:58;95751.75;;;14.38;87.86
82375;BME280;72005;50.496;15.798;2023-10-13T03:38:31;95749.94;;;14.39;87.93
82375;BME280;72005;50.496;15.798;2023-10-13T03:41:01;95749.13;;;14.38;87.90
82375;BME280;72005;50.496;15.798;2023-10-13T03:43:38;95753.34;;;14.39;87.87
82375;BME280;72005;50.496;15.798;2023-10-13T03:46:26;95749.66;;;14.40;87.87
82375;BME280;72005;50.496;15.798;2023-10-13T03:48:52;95751.25;;;14.41;87.97
82375;BME280;72005;50.496;15.798;2023-10-13T03:51:20;95751.25;;;14.41;87.76
82375;BME280;72005;50.496;15.798;2023-10-13T03:53:46;95742.25;;;14.42;87.79
82375;BME280;72005;50.496;15.798;2023-10-13T03:56:24;95743.81;;;14.43;87.82
82375;BME280;72005;50.496;15.798;2023-10-13T03:59:06;95735.38;;;14.41;87.74
82375;BME280;72005;50.496;15.798;2023-10-13T04:01:36;95738.03;;;14.41;87.84
82375;BME280;72005;50.496;15.798;2023-10-13T04:04:17;95743.03;;;14.43;87.79
82375;BME280;72005;50.496;15.798;2023-10-13T04:07:02;95735.91;;;14.38;87.89
82375;BME280;72005;50.496;15.798;2023-10-13T04:09:38;95732.78;;;14.36;87.65
82375;BME280;72005;50.496;15.798;2023-10-13T04:12:06;95738.56;;;14.38;87.77
82375;BME280;72005;50.496;15.798;2023-10-13T04:14:44;95742.56;;;14.36;87.85
82375;BME280;72005;50.496;15.798;2023-10-13T04:17:28;95735.13;;;14.38;87.95
82375;BME280;72005;50.496;15.798;2023-10-13T04:19:57;95732.75;;;14.41;88.01
82375;BME280;72005;50.496;15.798;2023-10-13T04:22:28;95733.78;;;14.40;87.81
82375;BME280;72005;50.496;15.798;2023-10-13T04:25:18;95743.31;;;14.41;87.81
82375;BME280;72005;50.496;15.798;2023-10-13T04:28:15;95738.03;;;14.41;87.88
82375;BME280;72005;50.496;15.798;2023-10-13T04:31:00;95734.56;;;14.41;87.79
82375;BME280;72005;50.496;15.798;2023-10-13T04:33:37;95740.94;;;14.40;87.75
82375;BME280;72005;50.496;15.798;2023-10-13T04:36:17;95738.28;;;14.40;87.78
82375;BME280;72005;50.496;15.798;2023-10-13T04:38:54;95738.28;;;14.40;87.73
82375;BME280;72005;50.496;15.798;2023-10-13T04:41:34;95737.50;;;14.39;87.70
82375;BME280;72005;50.496;15.798;2023-10-13T04:44:23;95732.22;;;14.39;87.64
82375;BME280;72005;50.496;15.798;2023-10-13T04:46:57;95722.16;;;14.41;87.64
82375;BME280;72005;50.496;15.798;2023-10-13T04:49:27;95724.00;;;14.41;87.54
82375;BME280;72005;50.496;15.798;2023-10-13T04:52:09;95720.06;;;14.38;87.48
82375;BME280;72005;50.496;15.798;2023-10-13T04:54:45;95723.53;;;14.34;87.42
82375;BME280;72005;50.496;15.798;2023-10-13T04:57:16;95715.31;;;14.35;87.36
82375;BME280;72005;50.496;15.798;2023-10-13T04:59:49;95712.19;;;14.33;87.17
82375;BME280;72005;50.496;15.798;2023-10-13T05:02:34;95716.69;;;14.33;87.03
82375;BME280;72005;50.496;15.798;2023-10-13T05:07:33;95702.19;;;14.25;87.08
82375;BME280;72005;50.496;15.798;2023-10-13T05:10:17;95713.88;;;14.19;87.13
82375;BME280;72005;50.496;15.798;2023-10-13T05:13:02;95715.22;;;14.11;87.17
82375;BME280;72005;50.496;15.798;2023-10-13T05:15:50;95712.13;;;14.04;87.39
82375;BME280;72005;50.496;15.798;2023-10-13T05:18:35;95728.22;;;14.03;87.68
82375;BME280;72005;50.496;15.798;2023-10-13T05:21:20;95728.78;;;13.99;87.68
82375;BME280;72005;50.496;15.798;2023-10-13T05:24:05;95748.06;;;13.95;87.60
82375;BME280;72005;50.496;15.798;2023-10-13T05:26:51;95735.66;;;13.95;87.56
82375;BME280;72005;50.496;15.798;2023-10-13T05:29:40;95742.56;;;13.86;87.67
82375;BME280;72005;50.496;15.798;2023-10-13T05:32:38;95743.94;;;13.79;88.06
82375;BME280;72005;50.496;15.798;2023-10-13T05:35:23;95755.81;;;13.76;88.25
82375;BME280;72005;50.496;15.798;2023-10-13T05:38:08;95754.75;;;13.72;88.53
82375;BME280;72005;50.496;15.798;2023-10-13T05:43:37;95754.31;;;13.54;90.04
82375;BME280;72005;50.496;15.798;2023-10-13T05:46:22;95767.50;;;13.60;89.63
82375;BME280;72005;50.496;15.798;2023-10-13T05:48:54;95771.44;;;13.57;89.98
82375;BME280;72005;50.496;15.798;2023-10-13T05:51:27;95775.41;;;13.54;90.12
82375;BME280;72005;50.496;15.798;2023-10-13T05:54:12;95771.22;;;13.48;90.93
82375;BME280;72005;50.496;15.798;2023-10-13T05:56:50;95773.84;;;13.48;90.87
82375;BME280;72005;50.496;15.798;2023-10-13T05:59:36;95769.91;;;13.51;90.96
82375;BME280;72005;50.496;15.798;2023-10-13T06:02:21;95760.13;;;13.51;91.40
82375;BME280;72005;50.496;15.798;2023-10-13T06:05:08;95765.66;;;13.55;91.31
82375;BME280;72005;50.496;15.798;2023-10-13T06:07:52;95764.59;;;13.56;91.24
82375;BME280;72005;50.496;15.798;2023-10-13T06:10:37;95765.91;;;13.59;91.68
82375;BME280;72005;50.496;15.798;2023-10-13T06:13:22;95763.28;;;13.53;92.47
82375;BME280;72005;50.496;15.798;2023-10-13T06:16:07;95757.22;;;13.53;92.82
82375;BME280;72005;50.496;15.798;2023-10-13T06:18:52;95764.88;;;13.54;93.24
82375;BME280;72005;50.496;15.798;2023-10-13T06:21:36;95766.97;;;13.58;93.34
82375;BME280;72005;50.496;15.798;2023-10-13T06:24:21;95772.22;;;13.68;93.28
82375;BME280;72005;50.496;15.798;2023-10-13T06:27:05;95782.22;;;13.76;92.96
82375;BME280;72005;50.496;15.798;2023-10-13T06:29:49;95785.09;;;13.85;92.81
82375;BME280;72005;50.496;15.798;2023-10-13T06:32:15;95785.34;;;13.88;92.39
82375;BME280;72005;50.496;15.798;2023-10-13T06:34:42;95794.28;;;13.92;92.38
82375;BME280;72005;50.496;15.798;2023-10-13T06:37:12;95800.34;;;13.98;92.02
82375;BME280;72005;50.496;15.798;2023-10-13T06:39:58;95800.31;;;14.03;92.06
82375;BME280;72005;50.496;15.798;2023-10-13T06:42:32;95812.44;;;14.09;91.98
82375;BME280;72005;50.496;15.798;2023-10-13T06:45:01;95810.56;;;14.15;91.77
82375;BME280;72005;50.496;15.798;2023-10-13T06:47:36;95811.09;;;14.17;91.80
82375;BME280;72005;50.496;15.798;2023-10-13T06:50:15;95820.56;;;14.23;91.66
82375;BME280;72005;50.496;15.798;2023-10-13T06:52:45;95816.56;;;14.31;91.46
82375;BME280;72005;50.496;15.798;2023-10-13T06:55:12;95822.63;;;14.36;91.21
82375;BME280;72005;50.496;15.798;2023-10-13T06:57:49;95821.28;;;14.39;91.15
82375;BME280;72005;50.496;15.798;2023-10-13T07:00:17;95819.66;;;14.43;91.04
82375;BME280;72005;50.496;15.798;2023-10-13T07:02:55;95823.06;;;14.49;91.09
82375;BME280;72005;50.496;15.798;2023-10-13T07:05:39;95827.56;;;14.53;90.87
82375;BME280;72005;50.496;15.798;2023-10-13T07:08:08;95817.75;;;14.59;90.94
82375;BME280;72005;50.496;15.798;2023-10-13T07:10:35;95818.22;;;14.66;90.87
82375;BME280;72005;50.496;15.798;2023-10-13T07:13:13;95808.63;;;14.75;90.89
82375;BME280;72005;50.496;15.798;2023-10-13T07:15:42;95805.91;;;14.91;91.20
82375;BME280;72005;50.496;15.798;2023-10-13T07:18:12;95810.50;;;15.09;91.25
82375;BME280;72005;50.496;15.798;2023-10-13T07:20:41;95814.31;;;15.27;91.14
82375;BME280;72005;50.496;15.798;2023-10-13T07:23:11;95815.00;;;15.38;90.56
82375;BME280;72005;50.496;15.798;2023-10-13T07:25:51;95819.41;;;15.47;90.36
82375;BME280;72005;50.496;15.798;2023-10-13T07:28:17;95815.59;;;15.58;90.00
82375;BME280;72005;50.496;15.798;2023-10-13T07:30:43;95812.00;;;15.73;90.17
82375;BME280;72005;50.496;15.798;2023-10-13T07:33:21;95817.19;;;15.84;89.97
82375;BME280;72005;50.496;15.798;2023-10-13T07:35:48;95823.00;;;15.86;89.30
82375;BME280;72005;50.496;15.798;2023-10-13T07:38:24;95823.00;;;15.86;88.79
82375;BME280;72005;50.496;15.798;2023-10-13T07:40:52;95819.00;;;15.88;88.78
82375;BME280;72005;50.496;15.798;2023-10-13T07:43:17;95819.78;;;15.89;88.65
82375;BME280;72005;50.496;15.798;2023-10-13T07:45:49;95810.25;;;15.88;88.46
82375;BME280;72005;50.496;15.798;2023-10-13T07:48:16;95815.06;;;15.86;88.24
82375;BME280;72005;50.496;15.798;2023-10-13T07:50:57;95805.03;;;15.83;88.08
82375;BME280;72005;50.496;15.798;2023-10-13T07:53:24;95809.31;;;15.78;88.13
82375;BME280;72005;50.496;15.798;2023-10-13T07:55:50;95800.31;;;15.79;88.24
82375;BME280;72005;50.496;15.798;2023-10-13T07:58:23;95801.66;;;15.77;88.30
82375;BME280;72005;50.496;15.798;2023-10-13T08:00:52;95805.34;;;15.76;88.27
82375;BME280;72005;50.496;15.798;2023-10-13T08:03:23;95806.16;;;15.76;88.38
82375;BME280;72005;50.496;15.798;2023-10-13T08:06:15;95812.56;;;15.70;87.94
82375;BME280;72005;50.496;15.798;2023-10-13T08:08:42;95816.56;;;15.68;88.12
82375;BME280;72005;50.496;15.798;2023-10-13T08:11:13;95812.09;;;15.63;88.06
82375;BME280;72005;50.496;15.798;2023-10-13T08:13:59;95804.22;;;15.58;88.05
82375;BME280;72005;50.496;15.798;2023-10-13T08:16:31;95816.88;;;15.61;88.16
82375;BME280;72005;50.496;15.798;2023-10-13T08:19:20;95814.75;;;15.63;88.12
82375;BME280;72005;50.496;15.798;2023-10-13T08:21:54;95815.81;;;15.62;87.97
82375;BME280;72005;50.496;15.798;2023-10-13T08:24:25;95812.88;;;15.64;87.84
82375;BME280;72005;50.496;15.798;2023-10-13T08:27:03;95813.16;;;15.62;88.12
82375;BME280;72005;50.496;15.798;2023-10-13T08:29:47;95815.25;;;15.65;88.06
82375;BME280;72005;50.496;15.798;2023-10-13T08:32:26;95812.09;;;15.68;88.16
82375;BME280;72005;50.496;15.798;2023-10-13T08:34:56;95818.13;;;15.74;88.23
82375;BME280;72005;50.496;15.798;2023-10-13T08:37:25;95814.34;;;15.80;88.31
82375;BME280;72005;50.496;15.798;2023-10-13T08:39:55;95807.59;;;15.88;88.24
82375;BME280;72005;50.496;15.798;2023-10-13T08:42:35;95814.38;;;15.99;88.14
82375;BME280;72005;50.496;15.798;2023-10-13T08:45:16;95811.88;;;16.08;88.11
82375;BME280;72005;50.496;15.798;2023-10-13T08:47:52;95811.19;;;16.21;88.05
82375;BME280;72005;50.496;15.798;2023-10-13T08:50:37;95812.84;;;16.36;88.07
82375;BME280;72005;50.496;15.798;2023-10-13T08:56:01;95807.47;;;16.60;87.24
82375;BME280;72005;50.496;15.798;2023-10-13T08:58:46;95820.97;;;16.63;87.04
82375;BME280;72005;50.496;15.798;2023-10-13T09:01:24;95828.34;;;16.66;86.72
82375;BME280;72005;50.496;15.798;2023-10-13T09:04:19;95818.31;;;16.63;86.32
82375;BME280;72005;50.496;15.798;2023-10-13T09:07:14;95827.56;;;16.66;86.60
82375;BME280;72005;50.496;15.798;2023-10-13T09:09:50;95817.94;;;16.70;86.60
82375;BME280;72005;50.496;15.798;2023-10-13T09:12:21;95819.22;;;16.73;86.41
82375;BME280;72005;50.496;15.798;2023-10-13T09:15:05;95829.31;;;16.70;85.73
82375;BME280;72005;50.496;15.798;2023-10-13T09:17:31;95813.41;;;16.70;86.33
82375;BME280;72005;50.496;15.798;2023-10-13T09:20:02;95817.94;;;16.70;85.85
82375;BME280;72005;50.496;15.798;2023-10-13T09:22:57;95818.72;;;16.70;85.50
82375;BME280;72005;50.496;15.798;2023-10-13T09:25:39;95812.63;;;16.70;85.92
82375;BME280;72005;50.496;15.798;2023-10-13T09:28:24;95820.59;;;16.70;85.63
82375;BME280;72005;50.496;15.798;2023-10-13T09:30:54;95808.41;;;16.69;85.64
82375;BME280;72005;50.496;15.798;2023-10-13T09:33:30;95810.22;;;16.55;85.39
82375;BME280;72005;50.496;15.798;2023-10-13T09:36:06;95814.22;;;16.52;85.53
82375;BME280;72005;50.496;15.798;2023-10-13T09:38:34;95813.72;;;16.50;85.82
82375;BME280;72005;50.496;15.798;2023-10-13T09:41:04;95813.28;;;16.43;85.86
82375;BME280;72005;50.496;15.798;2023-10-13T09:43:49;95815.13;;;16.42;85.81
82375;BME280;72005;50.496;15.798;2023-10-13T09:46:20;95809.63;;;16.39;85.82
82375;BME280;72005;50.496;15.798;2023-10-13T09:48:49;95804.63;;;16.37;86.16
82375;BME280;72005;50.496;15.798;2023-10-13T09:51:30;95807.03;;;16.34;86.41
82375;BME280;72005;50.496;15.798;2023-10-13T09:56:30;95800.84;;;16.19;86.44
82375;BME280;72005;50.496;15.798;2023-10-13T09:59:02;95793.94;;;16.23;86.69
82375;BME280;72005;50.496;15.798;2023-10-13T10:01:42;95795.28;;;16.21;86.53
82375;BME280;72005;50.496;15.798;2023-10-13T10:04:17;95800.94;;;16.14;87.10
82375;BME280;72005;50.496;15.798;2023-10-13T10:09:19;95797.31;;;16.05;87.26
82375;BME280;72005;50.496;15.798;2023-10-13T10:17:41;95788.13;;;16.02;88.00
82375;BME280;72005;50.496;15.798;2023-10-13T10:20:07;95784.06;;;16.05;87.73
82375;BME280;72005;50.496;15.798;2023-10-13T10:22:59;95781.50;;;16.00;87.95
82375;BME280;72005;50.496;15.798;2023-10-13T10:25:32;95776.38;;;16.09;87.88
82375;BME280;72005;50.496;15.798;2023-10-13T10:28:05;95769.41;;;16.13;88.22
82375;BME280;72005;50.496;15.798;2023-10-13T10:30:41;95769.72;;;16.11;88.38
82375;BME280;72005;50.496;15.798;2023-10-13T10:33:08;95767.34;;;16.10;88.59
82375;BME280;72005;50.496;15.798;2023-10-13T10:35:46;95763.28;;;16.17;88.53
82375;BME280;72005;50.496;15.798;2023-10-13T10:38:17;95765.75;;;16.28;88.55
82375;BME280;72005;50.496;15.798;2023-10-13T10:40:56;95771.41;;;16.40;88.07
82375;BME280;72005;50.496;15.798;2023-10-13T10:43:27;95758.53;;;16.52;88.21
82375;BME280;72005;50.496;15.798;2023-10-13T10:45:55;95772.50;;;16.58;87.91
82375;BME280;72005;50.496;15.798;2023-10-13T10:48:26;95765.25;;;16.63;87.64
82375;BME280;72005;50.496;15.798;2023-10-13T10:51:00;95751.34;;;16.72;87.21
82375;BME280;72005;50.496;15.798;2023-10-13T10:53:33;95754.47;;;16.74;87.19
82375;BME280;72005;50.496;15.798;2023-10-13T10:56:04;95745.09;;;16.81;86.98
82375;BME280;72005;50.496;15.798;2023-10-13T10:58:34;95745.31;;;16.85;86.75
82375;BME280;72005;50.496;15.798;2023-10-13T11:01:09;95739.41;;;16.88;86.82
82375;BME280;72005;50.496;15.798;2023-10-13T11:03:55;95739.50;;;16.83;86.79
82375;BME280;72005;50.496;15.798;2023-10-13T11:06:24;95724.06;;;16.85;86.76
82375;BME280;72005;50.496;15.798;2023-10-13T11:09:27;95731.69;;;16.73;86.88
82375;BME280;72005;50.496;15.798;2023-10-13T11:12:13;95725.63;;;16.86;86.89
82375;BME280;72005;50.496;15.798;2023-10-13T11:14:49;95727.16;;;16.92;87.11
82375;BME280;72005;50.496;15.798;2023-10-13T11:17:25;95722.13;;;16.90;86.71
82375;BME280;72005;50.496;15.798;2023-10-13T11:20:17;95713.28;;;16.81;86.36
82375;BME280;72005;50.496;15.798;2023-10-13T11:22:47;95710.63;;;16.81;86.40
82375;BME280;72005;50.496;15.798;2023-10-13T11:25:24;95714.06;;;16.82;86.83
82375;BME280;72005;50.496;15.798;2023-10-13T11:27:56;95714.38;;;16.94;87.04
82375;BME280;72005;50.496;15.798;2023-10-13T11:30:24;95716.25;;;16.94;86.53
82375;BME280;72005;50.496;15.798;2023-10-13T11:35:26;95721.16;;;17.00;86.57
82375;BME280;72005;50.496;15.798;2023-10-13T11:38:12;95701.91;;;17.08;86.74
82375;BME280;72005;50.496;15.798;2023-10-13T11:41:01;95700.44;;;17.16;86.79
82375;BME280;72005;50.496;15.798;2023-10-13T11:43:51;95701.94;;;17.22;86.47
82375;BME280;72005;50.496;15.798;2023-10-13T11:46:25;95699.28;;;17.36;86.74
82375;BME280;72005;50.496;15.798;2023-10-13T11:49:00;95699.38;;;17.58;86.92
82375;BME280;72005;50.496;15.798;2023-10-13T11:51:31;95691.97;;;17.83;86.16
82375;BME280;72005;50.496;15.798;2023-10-13T11:53:58;95696.84;;;18.03;85.59
82375;BME280;72005;50.496;15.798;2023-10-13T11:56:24;95688.91;;;18.26;85.46
82375;BME280;72005;50.496;15.798;2023-10-13T11:58:51;95679.22;;;18.53;85.71
82375;BME280;72005;50.496;15.798;2023-10-13T12:01:17;95676.38;;;18.71;84.29
82375;BME280;72005;50.496;15.798;2023-10-13T12:03:44;95676.47;;;18.80;83.76
82375;BME280;72005;50.496;15.798;2023-10-13T12:06:30;95671.06;;;18.94;83.80
82375;BME280;72005;50.496;15.798;2023-10-13T12:09:07;95672.66;;;19.04;83.37
82375;BME280;72005;50.496;15.798;2023-10-13T12:11:46;95658.13;;;19.10;83.11
82375;BME280;72005;50.496;15.798;2023-10-13T12:14:16;95660.97;;;19.13;82.92
82375;BME280;72005;50.496;15.798;2023-10-13T12:16:43;95652.78;;;19.10;81.63
82375;BME280;72005;50.496;15.798;2023-10-13T12:19:15;95665.28;;;19.01;80.87
82375;BME280;72005;50.496;15.798;2023-10-13T12:21:45;95662.91;;;18.90;80.74
82375;BME280;72005;50.496;15.798;2023-10-13T12:24:12;95661.94;;;18.86;80.90
82375;BME280;72005;50.496;15.798;2023-10-13T12:26:51;95657.41;;;18.96;81.51
82375;BME280;72005;50.496;15.798;2023-10-13T12:29:23;95660.09;;;18.96;81.33
82375;BME280;72005;50.496;15.798;2023-10-13T12:31:57;95661.19;;;18.94;81.30
82375;BME280;72005;50.496;15.798;2023-10-13T12:34:37;95650.22;;;18.87;81.25
82375;BME280;72005;50.496;15.798;2023-10-13T12:37:21;95656.97;;;18.71;81.14
82375;BME280;72005;50.496;15.798;2023-10-13T12:40:07;95650.56;;;18.72;81.22
82375;BME280;72005;50.496;15.798;2023-10-13T12:42:51;95648.81;;;18.67;81.56
82375;BME280;72005;50.496;15.798;2023-10-13T12:45:42;95647.41;;;18.70;82.04
82375;BME280;72005;50.496;15.798;2023-10-13T12:48:27;95644.03;;;18.78;82.49
82375;BME280;72005;50.496;15.798;2023-10-13T12:51:11;95643.78;;;18.88;82.63
82375;BME280;72005;50.496;15.798;2023-10-13T12:53:51;95640.38;;;18.97;82.35
82375;BME280;72005;50.496;15.798;2023-10-13T12:56:18;95632.84;;;18.99;81.78
82375;BME280;72005;50.496;15.798;2023-10-13T12:58:52;95640.22;;;19.02;81.43
82375;BME280;72005;50.496;15.798;2023-10-13T13:01:18;95624.72;;;19.04;81.71
82375;BME280;72005;50.496;15.798;2023-10-13T13:03:49;95626.16;;;19.10;81.67
82375;BME280;72005;50.496;15.798;2023-10-13T13:06:20;95618.53;;;19.17;81.41
82375;BME280;72005;50.496;15.798;2023-10-13T13:08:52;95610.22;;;19.27;80.88
82375;BME280;72005;50.496;15.798;2023-10-13T13:11:18;95614.47;;;19.28;80.71
82375;BME280;72005;50.496;15.798;2023-10-13T13:13:44;95613.09;;;19.31;80.55
82375;BME280;72005;50.496;15.798;2023-10-13T13:16:12;95613.09;;;19.31;80.53
82375;BME280;72005;50.496;15.798;2023-10-13T13:18:38;95610.72;;;19.29;80.17
82375;BME280;72005;50.496;15.798;2023-10-13T13:21:04;95605.22;;;19.26;80.28
82375;BME280;72005;50.496;15.798;2023-10-13T13:23:32;95596.75;;;19.24;80.11
82375;BME280;72005;50.496;15.798;2023-10-13T13:26:00;95595.03;;;19.19;79.97
82375;BME280;72005;50.496;15.798;2023-10-13T13:28:26;95585.47;;;19.18;79.98
82375;BME280;72005;50.496;15.798;2023-10-13T13:30:55;95594.06;;;19.15;80.15
82375;BME280;72005;50.496;15.798;2023-10-13T13:33:21;95594.06;;;19.15;80.25
82375;BME280;72005;50.496;15.798;2023-10-13T13:35:54;95587.97;;;19.14;80.19
82375;BME280;72005;50.496;15.798;2023-10-13T13:38:20;95599.41;;;19.15;80.24
82375;BME280;72005;50.496;15.798;2023-10-13T13:40:53;95591.41;;;19.15;80.30
82375;BME280;72005;50.496;15.798;2023-10-13T13:43:20;95588.75;;;19.15;79.86
82375;BME280;72005;50.496;15.798;2023-10-13T13:46:25;95584.66;;;19.09;79.66
82375;BME280;72005;50.496;15.798;2023-10-13T13:48:53;95586.84;;;19.07;80.01
82375;BME280;72005;50.496;15.798;2023-10-13T13:51:27;95589.22;;;19.08;79.94
82375;BME280;72005;50.496;15.798;2023-10-13T13:53:54;95577.94;;;19.11;79.63
82375;BME280;72005;50.496;15.798;2023-10-13T13:56:21;95581.25;;;19.17;79.86